West Homestead, Pennsylvania
Current Conditions -  °F | °C
As of 2:53 PM on Saturday 20 Dec 2014 (Local Time) from KAGC Reporting Station
Clear Clear  
Wind Chill: 26°   Ceiling: Unl
Heat Index: 32°   Visibility: 10mi
Dew Point: 16°   Wind: 6mph
Humidity: 52%   Direction: 330°NNW
Pressure: 30.2"   Gusts: NA
Location:  40.3948°N, 79.9074°W
Report Text: KAGC 201953Z 33005KT 10SM CLR 00/M09 A3020 RMK AO2 SLP246 T00001089
Loading
Personal Weather Stations






























Interactive Weather Map New forecast layout! Learn more

10-Day Weather Forecast

Advertisements
Track Severe Weather on mobile